Time;durP1;ratioP1;P1;durP2;ratioP2;P2;SDS_P1;SDS_P2;PMS_P1;PMS_P2;Temp;Humidity;BMP_temperature;BMP_pressure;BME280_temperature;BME280_humidity;BME280_pressure;Samples;Min_cycle;Max_cycle;Signal;HPM_P1;HPM_P2
2022/06/21 00:02:14;;;;;;;3.83;2.85;;;;;;;9.99;100.00;100480.59;5002779;28;20101;-78
2022/06/21 00:04:41;;;;;;;3.72;2.70;;;;;;;10.02;100.00;100482.31;4969970;28;20419;-79
2022/06/21 00:07:12;;;;;;;3.28;2.58;;;;;;;10.00;100.00;100481.47;4982603;28;20038;-79
2022/06/21 00:09:39;;;;;;;3.83;2.72;;;;;;;10.00;100.00;100479.69;4977622;28;20043;-78
2022/06/21 00:12:06;;;;;;;4.22;2.45;;;;;;;10.00;100.00;100484.97;4986880;28;20585;-78
2022/06/21 00:14:32;;;;;;;3.55;2.75;;;;;;;10.09;100.00;100483.94;4955502;28;20097;-76
2022/06/21 00:16:59;;;;;;;2.90;2.60;;;;;;;10.02;100.00;100487.59;4970106;28;20462;-80
2022/06/21 00:19:26;;;;;;;3.45;3.08;;;;;;;10.02;100.00;100484.97;5006082;28;20129;-78
2022/06/21 00:21:53;;;;;;;3.78;3.10;;;;;;;10.02;100.00;100488.47;4975321;28;20049;-77
2022/06/21 00:24:19;;;;;;;4.50;2.75;;;;;;;10.01;100.00;100497.28;4989581;28;20049;-81
2022/06/21 00:26:47;;;;;;;4.20;3.15;;;;;;;9.99;100.00;100499.06;5010137;28;20057;-80
2022/06/21 00:29:14;;;;;;;3.83;3.35;;;;;;;9.99;100.00;100503.47;4975741;28;20045;-79
2022/06/21 00:31:45;;;;;;;4.13;2.97;;;;;;;9.98;100.00;100502.59;5009274;28;20049;-80
2022/06/21 00:34:14;;;;;;;3.25;2.95;;;;;;;9.93;100.00;100507.13;4989932;28;20042;-81
2022/06/21 00:36:41;;;;;;;3.70;3.10;;;;;;;9.88;100.00;100506.34;4986007;28;20047;-79
2022/06/21 00:39:12;;;;;;;5.55;3.67;;;;;;;9.89;100.00;100502.81;4972651;28;20054;-79
2022/06/21 00:41:49;;;;;;;4.70;3.40;;;;;;;9.88;100.00;100508.97;4971799;28;20110;-81
2022/06/21 00:44:20;;;;;;;4.50;3.33;;;;;;;9.95;100.00;100507.97;4991487;28;20491;-81
2022/06/21 00:46:54;;;;;;;6.10;3.78;;;;;;;10.02;100.00;100495.50;4993120;28;20041;-81
2022/06/21 00:49:25;;;;;;;;;;;;;;;10.08;100.00;100495.38;4972982;28;20042;-80
2022/06/21 00:52:10;;;;;;;5.50;3.65;;;;;;;10.18;100.00;100498.72;4972374;28;19925;-80
2022/06/21 00:54:39;;;;;;;4.72;3.63;;;;;;;10.17;100.00;100489.88;4988436;28;20039;-80
2022/06/21 00:57:11;;;;;;;5.18;3.47;;;;;;;10.25;100.00;100492.41;5007787;28;20042;-81
2022/06/21 00:59:38;;;;;;;6.07;4.68;;;;;;;10.31;100.00;100482.56;4975207;28;20043;-80
2022/06/21 01:02:15;;;;;;;4.50;3.50;;;;;;;10.32;100.00;100488.72;4965226;28;20042;-79
2022/06/21 01:04:45;;;;;;;5.20;3.78;;;;;;;10.32;100.00;100488.72;4974940;28;20057;-80
2022/06/21 01:07:13;;;;;;;7.07;4.03;;;;;;;10.35;100.00;100483.41;4974499;28;20507;-81
2022/06/21 01:09:49;;;;;;;6.05;3.47;;;;;;;10.33;100.00;100482.53;4971514;28;20058;-81
2022/06/21 01:12:30;;;;;;;5.78;4.05;;;;;;;10.33;100.00;100477.25;4975289;28;20391;-81
2022/06/21 01:14:59;;;;;;;5.68;4.43;;;;;;;10.35;100.00;100484.25;4993467;28;20039;-80
2022/06/21 01:17:30;;;;;;;4.75;4.25;;;;;;;10.38;100.00;100492.09;4982048;28;20046;-78
2022/06/21 01:20:09;;;;;;;6.20;4.63;;;;;;;10.34;100.00;100487.81;4972246;28;20089;-80
2022/06/21 01:22:42;;;;;;;6.05;4.28;;;;;;;10.29;100.00;100481.75;4982505;28;20101;-78
2022/06/21 01:25:48;;;;;;;5.43;4.32;;;;;;;10.34;100.00;100482.53;4972220;28;20050;-79
2022/06/21 01:28:15;;;;;;;4.70;4.00;;;;;;;10.29;100.00;100494.09;5006290;28;20047;-79
2022/06/21 01:30:44;;;;;;;7.15;5.13;;;;;;;10.30;100.00;100507.25;4971195;28;20388;-78
2022/06/21 01:33:17;;;;;;;7.45;4.45;;;;;;;10.18;100.00;100510.13;4972967;28;20105;-80
2022/06/21 01:35:51;;;;;;;7.18;5.05;;;;;;;10.16;100.00;100510.13;5004788;28;20081;-78
2022/06/21 01:38:21;;;;;;;6.00;4.70;;;;;;;10.13;100.00;100499.66;4983931;28;20042;-78
2022/06/21 01:40:51;;;;;;;6.13;4.53;;;;;;;10.29;100.00;100504.66;4971906;28;20038;-78
2022/06/21 01:43:25;;;;;;;9.50;5.30;;;;;;;10.38;100.00;100499.16;4968205;28;20054;-79
2022/06/21 01:45:55;;;;;;;7.35;5.20;;;;;;;10.37;100.00;100508.00;4972329;28;20042;-81
2022/06/21 01:48:32;;;;;;;6.70;4.28;;;;;;;10.35;100.00;100499.25;4992408;28;20061;-79
2022/06/21 01:51:04;;;;;;;5.60;4.88;;;;;;;10.41;100.00;100507.00;4992343;28;20088;-79
2022/06/21 01:53:31;;;;;;;6.72;5.35;;;;;;;10.43;100.00;100514.00;4973007;28;20096;-79
2022/06/21 01:56:07;;;;;;;5.82;5.00;;;;;;;10.45;100.00;100505.19;4976357;28;20046;-79
2022/06/21 01:58:41;;;;;;;8.95;5.15;;;;;;;10.41;100.00;100515.78;4975955;28;20046;-80
2022/06/21 02:01:14;;;;;;;7.25;5.32;;;;;;;10.31;100.00;100502.84;4992780;28;20045;-80
2022/06/21 02:03:42;;;;;;;8.43;5.85;;;;;;;10.23;100.00;100510.91;4971487;28;20047;-79
2022/06/21 02:06:11;;;;;;;8.43;5.88;;;;;;;10.30;100.00;100512.53;4982903;28;20403;-79
2022/06/21 02:08:47;;;;;;;7.45;5.30;;;;;;;10.21;100.00;100515.34;4993482;28;20034;-79
2022/06/21 02:11:23;;;;;;;10.40;5.57;;;;;;;10.16;100.00;100511.91;4993978;28;20565;-78
2022/06/21 02:14:28;;;;;;;6.65;5.63;;;;;;;10.13;100.00;100515.50;4990821;28;20053;-80
2022/06/21 02:16:41;;;;;;;9.63;5.97;;;;;;;10.22;100.00;100506.53;5007068;28;20100;-78
2022/06/21 02:19:14;;;;;;;9.82;6.95;;;;;;;10.18;100.00;100506.63;4986909;28;20505;-79
2022/06/21 02:21:41;;;;;;;7.32;6.10;;;;;;;10.14;100.00;100506.66;4970308;28;20038;-77
2022/06/21 02:24:12;;;;;;;7.63;5.68;;;;;;;10.19;100.00;100516.28;4989577;28;20046;-77
2022/06/21 02:26:39;;;;;;;8.57;6.50;;;;;;;10.19;100.00;100511.00;4978309;28;20038;-78
2022/06/21 02:29:06;;;;;;;8.10;6.07;;;;;;;10.14;100.00;100503.16;5009628;28;20042;-79
2022/06/21 02:31:33;;;;;;;8.23;6.40;;;;;;;10.18;100.00;100510.13;4975618;28;20053;-78
2022/06/21 02:34:04;;;;;;;8.20;6.63;;;;;;;10.26;100.00;100510.00;4988203;28;20042;-77
2022/06/21 02:36:36;;;;;;;10.73;6.70;;;;;;;10.30;100.00;100511.66;4975060;28;20046;-78
2022/06/21 02:39:05;;;;;;;10.45;6.97;;;;;;;10.27;100.00;100504.69;4981223;28;20411;-77
2022/06/21 02:41:43;;;;;;;8.95;6.22;;;;;;;10.28;100.00;100505.56;4978491;28;20053;-78
2022/06/21 02:44:12;;;;;;;9.35;6.63;;;;;;;10.15;100.00;100504.91;4992600;28;20049;-79
2022/06/21 02:46:44;;;;;;;9.07;6.63;;;;;;;10.14;100.00;100511.09;4994300;28;20038;-79
2022/06/21 02:49:23;;;;;;;8.95;6.63;;;;;;;10.13;100.00;100510.22;4988036;28;20042;-78
2022/06/21 02:51:54;;;;;;;9.43;6.63;;;;;;;10.21;100.00;100517.09;4977589;28;20061;-78
2022/06/21 02:54:24;;;;;;;12.48;6.82;;;;;;;10.21;100.00;100515.34;4975840;28;20042;-78
2022/06/21 02:57:10;;;;;;;9.05;6.68;;;;;;;10.27;100.00;100517.03;4990166;28;20106;-78
2022/06/21 02:59:38;;;;;;;10.32;7.28;;;;;;;10.26;100.00;100512.66;4989991;28;20492;-77
2022/06/21 03:02:10;;;;;;;7.45;6.45;;;;;;;10.29;100.00;100510.78;5006197;28;20046;-78
2022/06/21 03:04:40;;;;;;;10.90;8.02;;;;;;;10.34;100.00;100518.59;4992495;28;20112;-79
2022/06/21 03:07:09;;;;;;;9.60;7.07;;;;;;;10.38;100.00;100517.66;4978251;28;20038;-78
2022/06/21 03:09:35;;;;;;;9.20;6.82;;;;;;;10.33;100.00;100517.72;4975476;28;20065;-79
2022/06/21 03:12:04;;;;;;;10.48;7.15;;;;;;;10.34;100.00;100523.88;4977214;28;20057;-79
2022/06/21 03:14:34;;;;;;;10.88;6.97;;;;;;;10.43;100.00;100521.06;4974399;28;20046;-78
2022/06/21 03:17:01;;;;;;;9.65;7.90;;;;;;;10.49;100.00;100515.63;4974121;28;20039;-78
2022/06/21 03:19:45;;;;;;;11.07;7.95;;;;;;;10.60;100.00;100523.34;4987452;28;20425;-80
2022/06/21 03:22:19;;;;;;;12.82;7.53;;;;;;;10.66;100.00;100521.41;4990810;28;20065;-79
2022/06/21 03:24:48;;;;;;;10.00;7.25;;;;;;;10.67;100.00;100517.84;4992789;28;20049;-79
2022/06/21 03:27:26;;;;;;;10.10;7.97;;;;;;;10.78;100.00;100522.91;4992296;28;20034;-79
2022/06/21 03:29:53;;;;;;;11.38;7.53;;;;;;;10.78;100.00;100520.25;5006933;28;20639;-80
2022/06/21 03:32:21;;;;;;;9.88;6.88;;;;;;;10.81;100.00;100519.31;4993766;28;20042;-79
2022/06/21 03:34:50;;;;;;;9.50;6.85;;;;;;;10.82;100.00;100532.47;4972693;28;20138;-79
2022/06/21 03:37:18;;;;;;;11.55;7.25;;;;;;;10.91;100.00;100534.03;4984388;28;20515;-79
2022/06/21 03:42:33;;;;;;;10.85;7.45;;;;;;;10.95;100.00;100535.72;4973216;28;20046;-79
2022/06/21 03:45:14;;;;;;;9.10;7.88;;;;;;;11.02;100.00;100547.88;4965307;28;20093;-79
2022/06/21 03:47:45;;;;;;;10.07;8.07;;;;;;;11.07;100.00;100547.75;4977823;28;20097;-78
2022/06/21 03:50:22;;;;;;;11.63;7.88;;;;;;;11.19;100.00;100555.41;4972445;28;20503;-79
2022/06/21 03:53:23;;;;;;;10.15;7.68;;;;;;;11.23;100.00;100550.00;4992293;28;20034;-79
2022/06/21 03:56:16;;;;;;;9.43;7.50;;;;;;;11.28;100.00;100552.53;4977307;28;20054;-78
2022/06/21 03:58:56;;;;;;;13.27;8.52;;;;;;;11.36;100.00;100549.69;4980421;28;20050;-80
2022/06/21 04:01:38;;;;;;;9.15;7.22;;;;;;;11.34;100.00;100554.13;4989956;28;20738;-82
2022/06/21 04:04:30;;;;;;;12.98;8.10;;;;;;;11.39;100.00;100558.41;4978074;28;20053;-83
2022/06/21 04:07:05;;;;;;;10.75;7.78;;;;;;;11.39;100.00;100565.47;4987490;28;20064;-82
2022/06/21 04:09:46;;;;;;;11.60;7.85;;;;;;;11.38;100.00;100569.91;4989457;28;20039;-78
2022/06/21 04:12:49;;;;;;;11.45;7.35;;;;;;;11.49;100.00;100577.56;4985944;28;20561;-82
2022/06/21 04:15:37;;;;;;;11.05;7.50;;;;;;;11.59;100.00;100579.06;4971331;28;20054;-79
2022/06/21 04:18:21;;;;;;;10.38;7.55;;;;;;;11.60;100.00;100567.56;5007127;28;20048;-81
2022/06/21 04:21:04;;;;;;;13.13;8.25;;;;;;;11.59;100.00;100579.06;4999159;28;20497;-78
2022/06/21 04:23:36;;;;;;;10.10;8.05;;;;;;;11.61;100.00;100579.91;5000961;28;20058;-78
2022/06/21 04:26:35;;;;;;;11.13;8.43;;;;;;;11.65;100.00;100573.59;4990527;28;20042;-78
2022/06/21 04:29:22;;;;;;;11.73;7.70;;;;;;;11.63;100.00;100572.78;4993985;28;20214;-78
2022/06/21 04:32:17;;;;;;;12.93;7.35;;;;;;;11.67;100.00;100565.63;4969574;28;20500;-77
2022/06/21 04:34:48;;;;;;;8.65;7.57;;;;;;;11.71;100.00;100576.09;4974051;28;20411;-78
2022/06/21 04:37:20;;;;;;;12.20;7.38;;;;;;;11.73;100.00;100571.63;4972965;28;20035;-78
2022/06/21 04:39:54;;;;;;;10.73;7.60;;;;;;;11.80;100.00;100580.31;4981488;28;20067;-79
2022/06/21 04:42:27;;;;;;;10.32;7.13;;;;;;;11.79;100.00;100579.41;4987982;28;20043;-78
2022/06/21 04:45:01;;;;;;;10.80;7.35;;;;;;;11.83;100.00;100574.94;4970499;28;20070;-78
2022/06/21 04:47:34;;;;;;;11.38;7.50;;;;;;;11.91;100.00;100586.19;4999579;28;20410;-79
2022/06/21 04:50:13;;;;;;;8.95;7.22;;;;;;;11.82;100.00;100587.28;4988707;28;20047;-78
2022/06/21 04:52:45;;;;;;;10.20;7.10;;;;;;;11.98;100.00;100592.19;4993804;28;20125;-77
2022/06/21 04:55:16;;;;;;;12.95;7.57;;;;;;;11.95;100.00;100601.09;4989900;28;20053;-78
2022/06/21 04:57:45;;;;;;;9.30;6.72;;;;;;;12.07;100.00;100600.72;4995097;28;20038;-79
2022/06/21 05:00:14;;;;;;;11.30;6.78;;;;;;;12.06;100.00;100603.44;4993437;28;20040;-78
2022/06/21 05:02:49;;;;;;;10.25;7.32;;;;;;;12.13;100.00;100602.34;4990988;28;20053;-76
2022/06/21 05:05:21;;;;;;;12.70;6.20;;;;;;;12.19;100.00;100602.19;4990085;28;20050;-81
2022/06/21 05:07:52;;;;;;;8.10;6.15;;;;;;;12.21;100.00;100602.16;4986055;28;20082;-78
2022/06/21 05:10:22;;;;;;;7.25;6.50;;;;;;;12.32;100.00;100618.59;4979088;28;20109;-78
2022/06/21 05:12:51;;;;;;;8.63;7.20;;;;;;;12.36;100.00;100607.00;4988581;28;20046;-79
2022/06/21 05:15:21;;;;;;;8.57;6.30;;;;;;;12.36;100.00;100618.47;4966486;28;20050;-78
2022/06/21 05:17:53;;;;;;;6.68;5.75;;;;;;;12.43;100.00;100613.84;4989021;28;20037;-79
2022/06/21 05:20:24;;;;;;;8.45;5.75;;;;;;;12.48;100.00;100616.38;4990133;28;20034;-80
2022/06/21 05:22:54;;;;;;;9.20;6.20;;;;;;;12.46;100.00;100619.09;4990601;28;20038;-78
2022/06/21 05:25:34;;;;;;;11.88;5.45;;;;;;;12.46;100.00;100611.13;4975418;28;20048;-78
2022/06/21 05:28:23;;;;;;;6.40;4.85;;;;;;;12.58;100.00;100623.16;4993265;28;20737;-79
2022/06/21 05:30:53;;;;;;;6.93;5.35;;;;;;;12.62;100.00;100625.69;4984939;28;20038;-79
2022/06/21 05:33:35;;;;;;;7.68;5.68;;;;;;;12.50;100.00;100630.44;4975238;28;20042;-77
2022/06/21 05:36:12;;;;;;;8.60;5.93;;;;;;;12.64;100.00;100626.50;5003186;28;20042;-79
2022/06/21 05:38:50;;;;;;;8.57;5.78;;;;;;;12.83;100.00;100623.28;5002631;28;20039;-79
2022/06/21 05:41:45;;;;;;;6.10;5.40;;;;;;;12.94;100.00;100631.78;4974934;28;20402;-79
2022/06/21 05:44:31;;;;;;;9.73;5.63;;;;;;;13.06;100.00;100626.09;4987434;28;20049;-78
2022/06/21 05:47:17;;;;;;;10.65;5.80;;;;;;;13.22;100.00;100637.13;5008021;28;20494;-78
2022/06/21 05:49:47;;;;;;;6.40;4.95;;;;;;;13.59;100.00;100631.50;4989120;28;20042;-80
2022/06/21 05:52:19;;;;;;;8.40;5.55;;;;;;;13.65;100.00;100643.69;4970609;28;20065;-79
2022/06/21 05:55:20;;;;;;;6.20;4.78;;;;;;;13.66;100.00;100638.34;4997345;28;20125;-79
2022/06/21 05:57:56;;;;;;;7.00;4.47;;;;;;;13.75;100.00;100653.09;4981054;28;20042;-77
2022/06/21 06:00:26;;;;;;;4.75;4.07;;;;;;;13.67;100.00;100652.47;5043181;23;20085;-79
2022/06/21 06:03:07;;;;;;;8.27;5.10;;;;;;;13.86;100.00;100653.59;5023178;28;20474;-79
2022/06/21 06:05:35;;;;;;;6.72;4.93;;;;;;;13.94;100.00;100654.19;5017401;28;20050;-82
2022/06/21 06:08:27;;;;;;;6.63;4.95;;;;;;;13.91;100.00;100658.75;4976361;28;20514;-81
2022/06/21 06:10:55;;;;;;;6.22;4.05;;;;;;;13.97;100.00;100656.75;5025593;28;20046;-80
2022/06/21 06:13:29;;;;;;;4.88;4.35;;;;;;;14.09;100.00;100660.75;5017402;28;20042;-80
2022/06/21 06:16:04;;;;;;;5.80;4.13;;;;;;;14.30;100.00;100648.53;4999309;28;20042;-80
2022/06/21 06:19:06;;;;;;;5.47;4.22;;;;;;;14.63;100.00;100663.28;4990252;28;20034;-80
2022/06/21 06:21:42;;;;;;;5.25;3.58;;;;;;;14.76;100.00;100662.81;5004421;28;20097;-80
2022/06/21 06:24:22;;;;;;;5.50;3.47;;;;;;;15.09;100.00;100680.13;4999451;28;20046;-79
2022/06/21 06:26:53;;;;;;;6.90;4.30;;;;;;;15.29;100.00;100673.16;5012073;28;20052;-79
2022/06/21 06:29:28;;;;;;;5.45;3.95;;;;;;;15.56;99.83;100664.09;4995484;28;20352;-80
2022/06/21 06:32:04;;;;;;;9.07;4.55;;;;;;;16.05;97.08;100664.69;5026393;28;20498;-80
2022/06/21 06:34:37;;;;;;;4.53;3.38;;;;;;;16.40;96.01;100663.19;4993329;28;20056;-80
2022/06/21 06:37:25;;;;;;;12.90;3.70;;;;;;;16.87;90.46;100660.16;5017306;28;20441;-80
2022/06/21 06:39:52;;;;;;;5.35;3.00;;;;;;;17.11;89.25;100661.69;4993552;28;20050;-80
2022/06/21 06:42:22;;;;;;;6.90;3.38;;;;;;;17.62;85.26;100662.78;4996750;28;20042;-80
2022/06/21 06:44:57;;;;;;;4.78;3.38;;;;;;;16.91;81.03;100664.44;5004041;28;20046;-80
2022/06/21 06:47:40;;;;;;;8.60;3.40;;;;;;;16.91;88.20;100661.78;5006430;28;20038;-80
2022/06/21 06:50:34;;;;;;;4.73;2.63;;;;;;;16.80;88.91;100656.91;5009189;28;20030;-80
2022/06/21 06:53:15;;;;;;;5.30;3.10;;;;;;;16.65;88.22;100667.38;4997112;28;20049;-79
2022/06/21 06:55:48;;;;;;;4.30;2.38;;;;;;;16.87;86.96;100668.19;5009296;28;20072;-80
2022/06/21 06:58:30;;;;;;;8.50;3.28;;;;;;;17.35;82.89;100670.34;5014890;28;20062;-80
2022/06/21 07:01:02;;;;;;;5.50;2.65;;;;;;;17.25;81.90;100677.06;4999116;28;20053;-83
2022/06/21 07:03:34;;;;;;;3.65;2.67;;;;;;;17.68;84.63;100669.63;5002018;28;20529;-81
2022/06/21 07:06:06;;;;;;;3.80;2.45;;;;;;;18.08;79.78;100679.22;5015726;28;20076;-83
2022/06/21 07:09:04;;;;;;;4.25;2.40;;;;;;;18.11;77.16;100676.38;5011865;28;20088;-81
2022/06/21 07:11:48;;;;;;;4.00;2.10;;;;;;;18.25;78.72;100668.50;4998571;28;20034;-81
2022/06/21 07:14:23;;;;;;;4.25;2.08;;;;;;;18.55;75.36;100668.69;5013673;28;20046;-79
2022/06/21 07:17:16;;;;;;;3.70;2.65;;;;;;;18.64;72.94;100669.16;5016388;28;20118;-82
2022/06/21 07:19:43;;;;;;;5.03;2.47;;;;;;;18.60;72.52;100675.63;4997766;28;20049;-82
2022/06/21 07:22:21;;;;;;;4.30;2.00;;;;;;;18.87;71.64;100676.84;4985061;28;20038;-81
2022/06/21 07:25:00;;;;;;;3.05;1.92;;;;;;;19.41;69.36;100672.00;4993728;28;20053;-84
2022/06/21 07:27:29;;;;;;;4.60;2.38;;;;;;;19.49;65.38;100667.09;4981572;28;20065;-80
2022/06/21 07:30:05;;;;;;;4.78;2.65;;;;;;;19.39;62.37;100665.88;4994491;28;20453;-83
2022/06/21 07:32:42;;;;;;;2.80;2.10;;;;;;;19.46;65.76;100672.63;4999526;28;20116;-80
2022/06/21 07:35:18;;;;;;;4.10;2.03;;;;;;;19.36;64.12;100661.56;4988518;28;20049;-81
2022/06/21 07:37:59;;;;;;;2.80;1.77;;;;;;;19.51;62.99;100664.34;4997464;28;20048;-82
2022/06/21 07:40:45;;;;;;;3.35;2.35;;;;;;;19.85;64.22;100657.91;5016825;28;20061;-82
2022/06/21 07:43:29;;;;;;;2.50;1.88;;;;;;;20.25;64.87;100654.53;4969833;28;20511;-80
2022/06/21 07:46:05;;;;;;;3.22;1.90;;;;;;;20.50;62.51;100656.63;4993947;28;20046;-81
2022/06/21 07:48:38;;;;;;;6.68;2.05;;;;;;;20.28;61.37;100660.69;4980624;28;20046;-82
2022/06/21 07:51:14;;;;;;;5.03;1.90;;;;;;;20.44;63.84;100658.84;4996125;28;20147;-82
2022/06/21 07:53:47;;;;;;;3.17;2.05;;;;;;;20.41;59.82;100662.53;4998992;28;20065;-81
2022/06/21 07:56:18;;;;;;;3.13;1.85;;;;;;;20.42;61.22;100660.69;4985865;28;20046;-82
2022/06/21 07:59:13;;;;;;;4.55;1.85;;;;;;;20.57;57.14;100645.50;4994295;28;20057;-81
2022/06/21 08:07:36;;;;;;;4.13;1.50;;;;;;;20.59;55.24;100648.97;5029017;28;20044;-81
2022/06/21 08:10:34;;;;;;;2.22;1.40;;;;;;;20.88;54.39;100644.47;5000898;28;20048;-82
2022/06/21 08:13:06;;;;;;;3.75;1.67;;;;;;;20.34;53.70;100646.91;5000299;28;20049;-81
2022/06/21 08:15:48;;;;;;;3.20;1.80;;;;;;;20.73;55.97;100648.97;4982236;28;20073;-81
2022/06/21 08:18:38;;;;;;;4.72;1.90;;;;;;;20.70;57.83;100655.41;4996476;28;20049;-82
2022/06/21 08:21:09;;;;;;;3.45;1.45;;;;;;;21.10;57.13;100647.47;4996893;28;20527;-81
2022/06/21 08:23:45;;;;;;;2.70;1.67;;;;;;;21.40;55.15;100646.50;4996265;28;20042;-80
2022/06/21 08:26:20;;;;;;;2.03;1.38;;;;;;;21.30;52.92;100643.56;4983689;28;20124;-83
2022/06/21 08:28:54;;;;;;;4.55;1.77;;;;;;;21.67;58.13;100644.66;4998672;28;20533;-81
2022/06/21 08:31:28;;;;;;;3.33;2.00;;;;;;;21.97;55.64;100646.25;4996267;28;20053;-82
2022/06/21 08:34:26;;;;;;;3.05;1.70;;;;;;;22.06;53.32;100651.88;4999242;28;20045;-80
2022/06/21 08:36:58;;;;;;;4.18;2.05;;;;;;;22.31;55.37;100647.53;5010478;28;20060;-82
2022/06/21 08:39:38;;;;;;;2.05;1.52;;;;;;;22.39;49.68;100640.63;5016997;28;20034;-81
2022/06/21 08:42:45;;;;;;;2.47;1.55;;;;;;;22.62;49.46;100643.53;5004473;28;20061;-81
2022/06/21 08:45:41;;;;;;;3.22;1.70;;;;;;;22.94;51.52;100643.94;4995717;28;20425;-81
2022/06/21 08:48:36;;;;;;;3.70;1.50;;;;;;;23.36;50.00;100641.78;5021130;28;20042;-80
2022/06/21 08:51:43;;;;;;;3.67;1.75;;;;;;;23.49;49.82;100646.16;5034920;28;20132;-81
2022/06/21 08:54:41;;;;;;;3.35;1.70;;;;;;;23.33;49.61;100644.72;5023706;28;20045;-81
2022/06/21 08:57:41;;;;;;;5.47;1.63;;;;;;;23.74;47.47;100645.22;5019038;28;20078;-81
2022/06/21 09:00:25;;;;;;;3.60;1.67;;;;;;;23.33;46.22;100648.25;5018558;28;20061;-83
2022/06/21 09:03:29;;;;;;;3.70;1.90;;;;;;;22.74;47.17;100648.91;5003255;28;20050;-82
2022/06/21 09:06:18;;;;;;;3.03;1.77;;;;;;;22.79;45.04;100639.66;5017905;28;20045;-81
2022/06/21 09:09:05;;;;;;;3.58;1.33;;;;;;;22.81;46.70;100653.88;5031406;28;20042;-80
2022/06/21 09:11:50;;;;;;;6.55;1.40;;;;;;;23.12;49.29;100653.41;5023159;28;20060;-81
2022/06/21 09:14:50;;;;;;;4.00;1.73;;;;;;;22.95;47.15;100651.94;5021377;28;20038;-81
2022/06/21 09:17:31;;;;;;;4.85;1.63;;;;;;;22.74;45.34;100651.59;5033566;28;20060;-81
2022/06/21 09:20:17;;;;;;;2.83;1.50;;;;;;;21.92;45.25;100642.03;5062349;28;20030;-82
2022/06/21 09:23:26;;;;;;;3.00;1.40;;;;;;;22.00;43.63;100640.66;5024305;28;20110;-78
2022/06/21 09:26:13;;;;;;;7.55;1.80;;;;;;;22.46;45.64;100639.25;5036407;28;20030;-79
2022/06/21 09:28:55;;;;;;;3.77;1.60;;;;;;;22.70;44.08;100644.72;5039364;28;20048;-81
2022/06/21 09:31:50;;;;;;;2.80;1.60;;;;;;;22.88;44.75;100634.50;5016577;28;20070;-81
2022/06/21 09:34:31;;;;;;;1.95;1.30;;;;;;;23.26;45.64;100633.50;4985089;28;20057;-81
2022/06/21 09:37:40;;;;;;;2.35;1.48;;;;;;;23.43;40.23;100630.44;5013985;28;20469;-82
2022/06/21 09:40:39;;;;;;;3.15;1.38;;;;;;;23.30;43.42;100635.03;5029963;28;20066;-83
2022/06/21 09:43:15;;;;;;;;;;;;;;;23.33;44.26;100628.53;5018812;28;20069;-80
2022/06/21 09:46:04;;;;;;;3.38;1.58;;;;;;;23.27;44.61;100633.41;5020479;28;19925;-80
2022/06/21 09:48:34;;;;;;;5.25;1.90;;;;;;;23.18;43.88;100635.91;5021392;28;20480;-83
2022/06/21 09:51:32;;;;;;;3.00;1.42;;;;;;;23.56;47.68;100631.25;5022269;28;20030;-80
2022/06/21 09:54:13;;;;;;;2.15;1.42;;;;;;;24.03;46.30;100628.63;5017167;28;20042;-80
2022/06/21 09:57:14;;;;;;;2.10;1.25;;;;;;;24.09;41.46;100637.09;5004230;28;20052;-81
2022/06/21 10:00:16;;;;;;;4.63;1.45;;;;;;;23.98;43.08;100634.38;5004667;28;20064;-80
2022/06/21 10:03:04;;;;;;;2.28;1.40;;;;;;;24.29;44.29;100640.94;5015730;28;20048;-80
2022/06/21 10:05:39;;;;;;;5.10;1.70;;;;;;;24.32;44.90;100634.50;4995874;28;20048;-81
2022/06/21 10:08:12;;;;;;;2.75;1.63;;;;;;;23.96;41.10;100636.31;5025459;28;20077;-81
2022/06/21 10:11:03;;;;;;;3.53;1.35;;;;;;;24.13;43.47;100635.00;5027675;28;20518;-82
2022/06/21 10:13:57;;;;;;;3.38;2.20;;;;;;;24.20;42.15;100633.56;4975936;28;20046;-83
2022/06/21 10:17:02;;;;;;;4.32;1.73;;;;;;;24.06;40.17;100641.91;5028049;28;20045;-80
2022/06/21 10:19:44;;;;;;;3.65;1.77;;;;;;;24.23;43.80;100637.88;4991770;28;20522;-80
2022/06/21 10:22:27;;;;;;;3.70;2.03;;;;;;;24.48;42.74;100626.91;5037127;28;20065;-79
2022/06/21 10:24:58;;;;;;;;;;;;;;;24.21;40.25;100626.31;5027416;28;20125;-80
2022/06/21 10:27:25;;;;;;;5.25;1.60;;;;;;;24.07;42.64;100633.66;4995684;28;19921;-79
2022/06/21 10:30:22;;;;;;;3.60;1.45;;;;;;;24.25;40.47;100625.13;5011238;28;20041;-81
2022/06/21 10:33:02;;;;;;;4.53;1.55;;;;;;;24.48;41.36;100626.91;5011769;28;20045;-80
2022/06/21 10:35:41;;;;;;;3.00;1.35;;;;;;;24.51;40.86;100631.22;5010235;28;20423;-82
2022/06/21 10:38:40;;;;;;;2.60;1.83;;;;;;;24.42;38.88;100627.38;5027630;28;20045;-80
2022/06/21 10:41:40;;;;;;;3.10;1.40;;;;;;;24.46;38.72;100625.28;5011459;28;20041;-82
2022/06/21 10:44:34;;;;;;;2.80;1.80;;;;;;;24.29;39.25;100623.88;4988961;28;20384;-79
2022/06/21 10:47:03;;;;;;;3.00;1.63;;;;;;;24.52;42.95;100628.38;5006546;28;20121;-80
2022/06/21 10:49:52;;;;;;;3.28;1.30;;;;;;;24.93;42.48;100626.91;5009205;28;20132;-79
2022/06/21 10:52:29;;;;;;;4.60;1.60;;;;;;;25.05;40.91;100628.63;5020479;28;20042;-80
2022/06/21 10:55:10;;;;;;;4.45;1.58;;;;;;;24.59;37.21;100626.06;5006557;28;20522;-79
2022/06/21 10:58:05;;;;;;;2.97;1.58;;;;;;;24.26;37.27;100633.09;4993658;28;20050;-80
2022/06/21 11:03:43;;;;;;;5.90;1.50;;;;;;;24.48;37.29;100628.75;5033573;28;20467;-82
2022/06/21 11:06:20;;;;;;;1.38;1.10;;;;;;;24.85;34.93;100632.06;5034980;28;20045;-81
2022/06/21 11:09:06;;;;;;;2.05;1.10;;;;;;;25.08;38.02;100627.53;5009069;28;20038;-81
2022/06/21 11:11:49;;;;;;;3.08;1.30;;;;;;;25.54;35.21;100630.00;5010252;28;20042;-80
2022/06/21 11:14:35;;;;;;;2.92;1.33;;;;;;;25.57;34.48;100632.47;5011991;28;20104;-82
2022/06/21 11:17:37;;;;;;;2.72;1.38;;;;;;;25.45;34.90;100628.06;5013511;28;20462;-79
2022/06/21 11:20:22;;;;;;;2.90;1.40;;;;;;;26.11;36.41;100628.78;5002079;28;20099;-79
2022/06/21 11:23:12;;;;;;;3.78;1.38;;;;;;;25.79;33.78;100629.69;4992516;28;20585;-81
2022/06/21 11:25:55;;;;;;;2.33;1.30;;;;;;;25.59;32.51;100632.34;5028538;28;20038;-80
2022/06/21 11:28:51;;;;;;;2.58;1.10;;;;;;;25.41;34.09;100629.31;5014234;28;20042;-81
2022/06/21 11:31:25;;;;;;;3.70;1.35;;;;;;;25.63;34.70;100620.25;5009922;28;20049;-81
2022/06/21 11:34:20;;;;;;;2.30;1.30;;;;;;;25.69;32.29;100614.31;5013502;28;20042;-82
2022/06/21 11:37:08;;;;;;;2.20;1.10;;;;;;;25.84;31.66;100617.63;5019363;28;20034;-82
2022/06/21 11:39:36;;;;;;;3.38;1.60;;;;;;;26.15;36.65;100619.44;4982931;28;20041;-81
2022/06/21 11:42:22;;;;;;;1.45;1.08;;;;;;;25.73;30.72;100607.72;4995433;28;20518;-82
2022/06/21 11:45:14;;;;;;;2.65;1.02;;;;;;;26.12;32.37;100607.97;4998808;28;20038;-81
2022/06/21 11:47:59;;;;;;;1.63;1.10;;;;;;;25.97;32.57;100616.44;5032652;28;20082;-82
2022/06/21 11:50:56;;;;;;;4.25;1.30;;;;;;;26.38;32.22;100609.31;5030822;28;20525;-80
2022/06/21 11:53:46;;;;;;;4.03;1.30;;;;;;;26.60;31.67;100616.41;5004532;28;20098;-79
2022/06/21 11:56:39;;;;;;;2.22;1.35;;;;;;;26.74;30.01;100615.19;5011607;28;20109;-79
2022/06/21 11:59:14;;;;;;;1.35;1.10;;;;;;;26.59;28.64;100618.28;5026953;28;20053;-79
2022/06/21 13:20:36;;;;;;;3.90;1.25;;;;;;;25.97;31.63;100593.91;4986533;28;20141;-76
2022/06/21 13:23:12;;;;;;;2.78;1.10;;;;;;;26.21;31.50;100583.66;4972858;28;20046;-77
2022/06/21 13:25:53;;;;;;;2.03;1.10;;;;;;;25.90;32.76;100590.03;4971887;28;20460;-76
2022/06/21 13:28:44;;;;;;;3.53;1.42;;;;;;;25.87;32.17;100582.16;4994864;28;20046;-76
2022/06/21 13:31:47;;;;;;;3.30;1.38;;;;;;;25.38;32.23;100589.84;4967821;28;20506;-76
2022/06/21 13:34:34;;;;;;;2.30;1.10;;;;;;;24.85;32.42;100581.59;4935955;28;20047;-78
2022/06/21 13:37:10;;;;;;;1.13;1.00;;;;;;;24.50;34.03;100583.56;4960532;28;20093;-77
2022/06/21 13:39:55;;;;;;;2.50;0.95;;;;;;;24.50;32.80;100583.56;4977041;28;20122;-76
2022/06/21 13:42:37;;;;;;;1.48;0.88;;;;;;;24.77;31.50;100585.91;4944911;28;20051;-77
2022/06/21 13:45:31;;;;;;;1.05;0.80;;;;;;;25.04;30.00;100583.66;4974240;28;20450;-78
2022/06/21 13:48:34;;;;;;;1.15;0.82;;;;;;;25.37;30.16;100579.16;4971237;28;20042;-77